Time;durP1;ratioP1;P1;durP2;ratioP2;P2;SDS_P1;SDS_P2;PMS_P1;PMS_P2;Temp;Humidity;BMP_temperature;BMP_pressure;BME280_temperature;BME280_humidity;BME280_pressure;Samples;Min_cycle;Max_cycle;Signal;HPM_P1;HPM_P2
2021/01/11 00:00:24;;;;;;;;;;;27.30;34.00;;;;;;5091291;28;19912;-58
2021/01/11 00:02:52;;;;;;;;;;;27.30;34.10;;;;;;5079973;28;19916;-57
2021/01/11 00:05:18;;;;;;;;;;;27.30;34.10;;;;;;5072675;28;19909;-49
2021/01/11 00:07:43;;;;;;;;;;;27.30;34.10;;;;;;5072599;28;19909;-55
2021/01/11 00:10:09;;;;;;;;;;;27.30;34.10;;;;;;5072425;28;19908;-51
2021/01/11 00:12:35;;;;;;;;;;;27.30;34.10;;;;;;5072453;28;19908;-48
2021/01/11 00:15:01;;;;;;;;;;;27.30;34.20;;;;;;5083993;28;19965;-53
2021/01/11 00:17:27;;;;;;;;;;;27.30;34.10;;;;;;5092520;28;19947;-56
2021/01/11 00:19:52;;;;;;;;;;;27.30;34.10;;;;;;5092857;28;19919;-56
2021/01/11 00:22:18;;;;;;;;;;;27.30;34.20;;;;;;5092564;28;19908;-52
2021/01/11 00:24:43;;;;;;;;;;;27.30;34.20;;;;;;5092912;28;19914;-50
2021/01/11 00:27:09;;;;;;;;;;;27.30;34.20;;;;;;5092534;28;19908;-52
2021/01/11 00:29:34;;;;;;;;;;;27.30;34.20;;;;;;5082315;28;19935;-55
2021/01/11 00:32:00;;;;;;;;;;;27.30;34.20;;;;;;5072153;28;19915;-54
2021/01/11 00:34:25;;;;;;;;;;;27.30;34.20;;;;;;5072269;28;19995;-55
2021/01/11 00:36:58;;;;;;;;;;;27.30;34.20;;;;;;5073423;28;19919;-59
2021/01/11 00:39:24;;;;;;;;;;;27.30;34.20;;;;;;5072832;28;19999;-56
2021/01/11 00:41:54;;;;;;;;;;;27.30;34.10;;;;;;5072237;28;20377;-51
2021/01/11 00:44:19;;;;;;;;;;;27.30;34.20;;;;;;5072470;28;19913;-56
2021/01/11 00:46:45;;;;;;;;;;;27.30;34.20;;;;;;5072198;28;19908;-51
2021/01/11 00:49:10;;;;;;;;;;;27.30;34.50;;;;;;5072493;28;19909;-50
2021/01/11 00:51:36;;;;;;;;;;;27.20;34.50;;;;;;5071004;28;20003;-57
2021/01/11 00:54:02;;;;;;;;;;;27.10;34.90;;;;;;5067541;28;19913;-57
2021/01/11 00:56:28;;;;;;;;;;;26.90;35.00;;;;;;5061610;28;19974;-55
2021/01/11 00:58:54;;;;;;;;;;;26.90;35.00;;;;;;5069838;28;19909;-57
2021/01/11 01:01:19;;;;;;;;;;;26.90;34.90;;;;;;5074315;28;19965;-57
2021/01/11 01:03:45;;;;;;;;;;;26.90;34.90;;;;;;5084462;28;20381;-55
2021/01/11 01:06:11;;;;;;;;;;;26.90;34.90;;;;;;5086251;28;19919;-55
2021/01/11 01:08:36;;;;;;;;;;;26.80;34.90;;;;;;5096134;28;20380;-57
2021/01/11 01:11:02;;;;;;;;;;;26.80;34.90;;;;;;5095921;28;20382;-55
2021/01/11 01:13:27;;;;;;;;;;;26.80;34.90;;;;;;5095953;28;20358;-57
2021/01/11 01:15:53;;;;;;;;;;;26.70;34.90;;;;;;5090449;28;19931;-55
2021/01/11 01:18:18;;;;;;;;;;;26.70;34.90;;;;;;5088695;28;20278;-57
2021/01/11 01:20:44;;;;;;;;;;;26.70;34.90;;;;;;5093126;28;19913;-57
2021/01/11 01:23:09;;;;;;;;;;;26.60;34.90;;;;;;5084104;28;19919;-57
2021/01/11 01:25:34;;;;;;;;;;;26.70;34.90;;;;;;5075432;28;19908;-56
2021/01/11 01:28:00;;;;;;;;;;;26.60;34.90;;;;;;5075655;28;19913;-56
2021/01/11 01:30:25;;;;;;;;;;;26.60;35.00;;;;;;5076532;28;20019;-56
2021/01/11 01:32:51;;;;;;;;;;;26.60;35.00;;;;;;5082886;28;19913;-57
2021/01/11 01:35:16;;;;;;;;;;;26.50;35.00;;;;;;5075263;28;19923;-56
2021/01/11 01:37:42;;;;;;;;;;;26.50;35.00;;;;;;5095545;28;19912;-56
2021/01/11 01:40:08;;;;;;;;;;;26.50;35.00;;;;;;5095158;28;20386;-55
2021/01/11 01:42:33;;;;;;;;;;;26.50;35.00;;;;;;5095165;28;19957;-57
2021/01/11 01:44:59;;;;;;;;;;;26.50;35.10;;;;;;5093392;28;20412;-57
2021/01/11 01:47:24;;;;;;;;;;;26.40;35.00;;;;;;5086348;28;19915;-56
2021/01/11 01:49:50;;;;;;;;;;;26.40;35.00;;;;;;5078643;28;19908;-57
2021/01/11 01:52:15;;;;;;;;;;;26.40;35.00;;;;;;5082982;28;19919;-57
2021/01/11 01:54:41;;;;;;;;;;;26.40;35.00;;;;;;5090261;28;19916;-56
2021/01/11 01:57:07;;;;;;;;;;;26.40;35.00;;;;;;5075780;28;19909;-57
2021/01/11 01:59:32;;;;;;;;;;;26.40;35.10;;;;;;5074905;28;20344;-55
2021/01/11 02:02:01;;;;;;;;;;;26.40;35.00;;;;;;5084184;28;19908;-57
2021/01/11 02:04:26;;;;;;;;;;;26.40;35.10;;;;;;5073293;28;19924;-56
2021/01/11 02:06:57;;;;;;;;;;;26.40;35.10;;;;;;5074560;28;20328;-57
2021/01/11 02:09:42;;;;;;;;;;;26.30;35.10;;;;;;5075567;28;19908;-57
2021/01/11 02:12:10;;;;;;;;;;;26.30;35.10;;;;;;5090625;28;19977;-57
2021/01/11 02:14:38;;;;;;;;;;;26.30;35.10;;;;;;5093279;28;19914;-56
2021/01/11 02:17:05;;;;;;;;;;;26.30;35.10;;;;;;5093151;28;20459;-56
2021/01/11 02:19:50;;;;;;;;;;;26.30;35.10;;;;;;5079219;28;20309;-57
2021/01/11 02:22:17;;;;;;;;;;;26.30;35.10;;;;;;5078425;28;20366;-54
2021/01/11 02:25:02;;;;;;;;;;;26.20;35.10;;;;;;5081014;28;19983;-54
2021/01/11 02:27:27;;;;;;;;;;;26.20;35.20;;;;;;5054294;28;19909;-57
2021/01/11 02:30:05;;;;;;;;;;;26.20;35.10;;;;;;5053849;28;20015;-56
2021/01/11 02:32:30;;;;;;;;;;;26.20;35.10;;;;;;5083940;28;19961;-57
2021/01/11 02:34:57;;;;;;;;;;;26.20;35.20;;;;;;5085373;28;19924;-57
2021/01/11 02:37:23;;;;;;;;;;;26.20;35.30;;;;;;5082441;28;19951;-57
2021/01/11 02:39:48;;;;;;;;;;;26.10;35.30;;;;;;5074037;28;20372;-56
2021/01/11 02:42:13;;;;;;;;;;;26.20;35.40;;;;;;5089323;28;19932;-56
2021/01/11 02:44:39;;;;;;;;;;;26.20;35.40;;;;;;5075060;28;20017;-57
2021/01/11 02:47:04;;;;;;;;;;;26.20;35.40;;;;;;5082652;28;20017;-57
2021/01/11 02:49:37;;;;;;;;;;;26.20;35.40;;;;;;5092677;28;20397;-57
2021/01/11 02:52:29;;;;;;;;;;;26.20;35.40;;;;;;5081457;28;19915;-54
2021/01/11 02:54:55;;;;;;;;;;;26.10;35.40;;;;;;5072198;28;19927;-56
2021/01/11 02:57:47;;;;;;;;;;;26.10;35.40;;;;;;5092566;28;19943;-55
2021/01/11 03:00:13;;;;;;;;;;;26.10;35.40;;;;;;5088857;28;19995;-56
2021/01/11 03:02:40;;;;;;;;;;;26.10;35.40;;;;;;5079598;28;20346;-57
2021/01/11 03:05:05;;;;;;;;;;;26.10;35.40;;;;;;5082155;28;19920;-56
2021/01/11 03:07:31;;;;;;;;;;;26.10;35.30;;;;;;5088233;28;19912;-57
2021/01/11 03:09:56;;;;;;;;;;;26.10;35.40;;;;;;5093583;28;20331;-57
2021/01/11 03:12:22;;;;;;;;;;;26.10;35.40;;;;;;5093467;28;20379;-56
2021/01/11 03:14:47;;;;;;;;;;;26.10;35.40;;;;;;5093341;28;20382;-56
2021/01/11 03:17:13;;;;;;;;;;;26.10;35.40;;;;;;5074274;28;19915;-57
2021/01/11 03:19:38;;;;;;;;;;;26.10;35.40;;;;;;5075965;28;19912;-56
2021/01/11 03:22:04;;;;;;;;;;;26.10;35.40;;;;;;5081043;28;20286;-55
2021/01/11 03:24:30;;;;;;;;;;;26.10;35.40;;;;;;5093654;28;19908;-56
2021/01/11 03:26:59;;;;;;;;;;;26.10;35.40;;;;;;5093051;28;19965;-56
2021/01/11 03:29:24;;;;;;;;;;;26.10;35.40;;;;;;5093004;28;20384;-56
2021/01/11 03:31:50;;;;;;;;;;;26.10;35.40;;;;;;5077145;28;19913;-57
2021/01/11 03:34:15;;;;;;;;;;;26.10;35.40;;;;;;5072967;28;20275;-56
2021/01/11 03:36:41;;;;;;;;;;;26.10;35.30;;;;;;5087496;28;19955;-56
2021/01/11 03:39:07;;;;;;;;;;;26.10;35.30;;;;;;5093068;28;19920;-55
2021/01/11 03:41:35;;;;;;;;;;;26.10;35.30;;;;;;5079441;28;19999;-55
2021/01/11 03:44:01;;;;;;;;;;;26.10;35.40;;;;;;5082674;28;19985;-56
2021/01/11 03:46:27;;;;;;;;;;;26.00;35.40;;;;;;5093003;28;20362;-57
2021/01/11 03:48:53;;;;;;;;;;;26.10;35.30;;;;;;5093327;28;19915;-56
2021/01/11 03:51:18;;;;;;;;;;;26.10;35.30;;;;;;5091578;28;19912;-56
2021/01/11 03:53:44;;;;;;;;;;;26.10;35.30;;;;;;5083521;28;20380;-57
2021/01/11 03:56:10;;;;;;;;;;;26.10;35.30;;;;;;5077477;28;19925;-56
2021/01/11 03:58:35;;;;;;;;;;;26.10;35.30;;;;;;5072753;28;20130;-54
2021/01/11 04:01:01;;;;;;;;;;;26.00;35.30;;;;;;5078855;28;19923;-55
2021/01/11 04:03:27;;;;;;;;;;;26.00;35.40;;;;;;5085398;28;19927;-57
2021/01/11 04:05:52;;;;;;;;;;;26.00;35.40;;;;;;5073861;28;19916;-56
2021/01/11 04:08:18;;;;;;;;;;;26.00;35.40;;;;;;5075287;28;19919;-56
2021/01/11 04:10:43;;;;;;;;;;;25.90;35.30;;;;;;5072895;28;19999;-56
2021/01/11 04:13:09;;;;;;;;;;;25.90;35.40;;;;;;5072574;28;20278;-57
2021/01/11 04:15:34;;;;;;;;;;;25.90;35.30;;;;;;5076253;28;19920;-56
2021/01/11 04:18:00;;;;;;;;;;;26.00;35.30;;;;;;5072556;28;19909;-57
2021/01/11 04:20:26;;;;;;;;;;;26.00;35.30;;;;;;5083137;28;19912;-57
2021/01/11 04:22:51;;;;;;;;;;;26.00;35.30;;;;;;5081385;28;19948;-56
2021/01/11 04:25:17;;;;;;;;;;;25.90;35.30;;;;;;5072432;28;19913;-57
2021/01/11 04:27:42;;;;;;;;;;;25.90;35.30;;;;;;5072311;28;20007;-54
2021/01/11 04:30:08;;;;;;;;;;;25.90;35.20;;;;;;5073835;28;19920;-56
2021/01/11 04:32:36;;;;;;;;;;;25.90;35.30;;;;;;5082326;28;19928;-57
2021/01/11 04:35:03;;;;;;;;;;;25.90;35.30;;;;;;5079459;28;19924;-56
2021/01/11 04:37:28;;;;;;;;;;;25.90;35.30;;;;;;5076462;28;19913;-56
2021/01/11 04:39:54;;;;;;;;;;;25.90;35.20;;;;;;5089150;28;19961;-54
2021/01/11 04:42:22;;;;;;;;;;;25.90;35.20;;;;;;5096631;28;20267;-57
2021/01/11 04:44:48;;;;;;;;;;;25.90;35.20;;;;;;5096292;28;19999;-56
2021/01/11 04:47:13;;;;;;;;;;;25.90;35.10;;;;;;5088934;28;20049;-57
2021/01/11 04:49:39;;;;;;;;;;;25.90;35.20;;;;;;5076263;28;19959;-56
2021/01/11 04:52:05;;;;;;;;;;;25.90;35.20;;;;;;5090731;28;20263;-55
2021/01/11 04:54:30;;;;;;;;;;;25.90;35.20;;;;;;5076084;28;19940;-54
2021/01/11 04:56:56;;;;;;;;;;;25.90;35.20;;;;;;5084106;28;19917;-55
2021/01/11 04:59:21;;;;;;;;;;;25.90;35.10;;;;;;5071565;28;19919;-56
2021/01/11 05:01:50;;;;;;;;;;;25.90;35.20;;;;;;5085947;28;20575;-56
2021/01/11 05:04:15;;;;;;;;;;;25.90;35.20;;;;;;5085096;28;19991;-57
2021/01/11 05:06:44;;;;;;;;;;;25.90;35.20;;;;;;5087684;28;19951;-56
2021/01/11 05:09:13;;;;;;;;;;;25.90;35.20;;;;;;5082640;28;19913;-54
2021/01/11 05:11:38;;;;;;;;;;;25.90;35.20;;;;;;5085591;28;19966;-55
2021/01/11 05:14:04;;;;;;;;;;;25.90;35.20;;;;;;5095813;28;19912;-55
2021/01/11 05:16:29;;;;;;;;;;;25.90;35.20;;;;;;5088071;28;19916;-54
2021/01/11 05:19:00;;;;;;;;;;;25.90;35.20;;;;;;5092637;28;20419;-57
2021/01/11 05:21:41;;;;;;;;;;;25.90;35.20;;;;;;5075676;28;19915;-56
2021/01/11 05:24:26;;;;;;;;;;;25.90;35.20;;;;;;5094077;28;20346;-56
2021/01/11 05:26:52;;;;;;;;;;;25.90;35.20;;;;;;5095490;28;19965;-56
2021/01/11 05:29:18;;;;;;;;;;;25.90;35.70;;;;;;5095431;28;19908;-55
2021/01/11 05:31:50;;;;;;;;;;;25.90;35.00;;;;;;5080264;28;20006;-56
2021/01/11 05:34:15;;;;;;;;;;;25.90;35.20;;;;;;5075165;28;20370;-55
2021/01/11 05:36:42;;;;;;;;;;;25.90;35.20;;;;;;5079735;28;19927;-54
2021/01/11 05:39:07;;;;;;;;;;;25.90;35.20;;;;;;5081075;28;19916;-56
2021/01/11 05:41:33;;;;;;;;;;;25.90;35.20;;;;;;5075303;28;20723;-55
2021/01/11 05:44:14;;;;;;;;;;;25.90;35.10;;;;;;5090096;28;20394;-56
2021/01/11 05:46:40;;;;;;;;;;;25.90;35.10;;;;;;5081198;28;19917;-56
2021/01/11 05:49:06;;;;;;;;;;;25.90;35.00;;;;;;5075132;28;19908;-55
2021/01/11 05:51:32;;;;;;;;;;;25.90;35.00;;;;;;5093971;28;19919;-53
2021/01/11 05:53:58;;;;;;;;;;;25.90;35.10;;;;;;5078244;28;20277;-56
2021/01/11 05:56:24;;;;;;;;;;;25.80;35.60;;;;;;5075725;28;19921;-57
2021/01/11 05:59:05;;;;;;;;;;;25.90;35.00;;;;;;5081362;28;19912;-55
2021/01/11 06:01:31;;;;;;;;;;;25.90;35.10;;;;;;5081301;28;19912;-57
2021/01/11 06:03:56;;;;;;;;;;;25.80;35.10;;;;;;5074728;28;19920;-57
2021/01/11 06:06:22;;;;;;;;;;;25.80;35.10;;;;;;5074483;28;20354;-56
2021/01/11 06:08:47;;;;;;;;;;;25.80;35.00;;;;;;5082538;28;19912;-55
2021/01/11 06:11:13;;;;;;;;;;;25.80;35.00;;;;;;5074605;28;20046;-57
2021/01/11 06:13:39;;;;;;;;;;;25.80;35.00;;;;;;5090053;28;19912;-54
2021/01/11 06:16:05;;;;;;;;;;;25.80;35.00;;;;;;5080564;28;20023;-56
2021/01/11 06:18:30;;;;;;;;;;;25.80;35.00;;;;;;5057483;28;19990;-54
2021/01/11 06:20:56;;;;;;;;;;;25.80;35.10;;;;;;5074041;28;19917;-56
2021/01/11 06:23:25;;;;;;;;;;;25.80;35.10;;;;;;5081133;28;19912;-55
2021/01/11 06:25:51;;;;;;;;;;;25.80;35.10;;;;;;5074277;28;19909;-55
2021/01/11 06:28:16;;;;;;;;;;;25.80;35.10;;;;;;5092180;28;20374;-56
2021/01/11 06:30:43;;;;;;;;;;;25.80;35.10;;;;;;5089328;28;19927;-56
2021/01/11 06:33:09;;;;;;;;;;;25.80;35.10;;;;;;5073846;28;19936;-55
2021/01/11 06:35:41;;;;;;;;;;;25.80;35.10;;;;;;5074072;28;19920;-54
2021/01/11 06:38:07;;;;;;;;;;;25.80;35.10;;;;;;5073728;28;20367;-54
2021/01/11 06:40:33;;;;;;;;;;;25.80;35.10;;;;;;5073638;28;20360;-54
2021/01/11 06:42:58;;;;;;;;;;;25.80;35.00;;;;;;5074022;28;20003;-57
2021/01/11 06:45:33;;;;;;;;;;;25.80;35.00;;;;;;5089646;28;19962;-54
2021/01/11 06:48:02;;;;;;;;;;;25.80;35.00;;;;;;5087991;28;20362;-53
2021/01/11 06:50:28;;;;;;;;;;;25.80;35.00;;;;;;5088252;28;20366;-56
2021/01/11 06:52:53;;;;;;;;;;;25.80;35.00;;;;;;5077486;28;19935;-54
2021/01/11 06:55:19;;;;;;;;;;;25.80;35.00;;;;;;5091471;28;19927;-56
2021/01/11 06:57:46;;;;;;;;;;;25.80;35.00;;;;;;5092747;28;19919;-56
2021/01/11 07:00:13;;;;;;;;;;;25.80;35.00;;;;;;5091874;28;19926;-56
2021/01/11 07:02:41;;;;;;;;;;;25.70;35.00;;;;;;5074945;28;19913;-56
2021/01/11 07:05:07;;;;;;;;;;;25.70;35.00;;;;;;5088882;28;19916;-55
2021/01/11 07:07:33;;;;;;;;;;;25.70;35.00;;;;;;5077100;28;19920;-57
2021/01/11 07:09:59;;;;;;;;;;;25.70;35.00;;;;;;5086709;28;19912;-56
2021/01/11 07:12:25;;;;;;;;;;;25.70;35.00;;;;;;5091413;28;19957;-56
2021/01/11 07:14:56;;;;;;;;;;;25.70;34.90;;;;;;5093523;28;19912;-56
2021/01/11 07:17:34;;;;;;;;;;;25.80;35.00;;;;;;5081923;28;20022;-55
2021/01/11 07:19:59;;;;;;;;;;;25.70;34.90;;;;;;5074184;28;19912;-56
2021/01/11 07:22:25;;;;;;;;;;;25.70;35.00;;;;;;5081943;28;19923;-56
2021/01/11 07:24:50;;;;;;;;;;;25.70;35.00;;;;;;5076861;28;19916;-56
2021/01/11 07:27:16;;;;;;;;;;;25.80;35.00;;;;;;5070981;28;19916;-56
2021/01/11 07:29:43;;;;;;;;;;;25.70;35.00;;;;;;5068310;28;19967;-56
2021/01/11 07:32:08;;;;;;;;;;;25.70;35.00;;;;;;5060261;28;20437;-56
2021/01/11 07:34:34;;;;;;;;;;;25.70;35.00;;;;;;5076979;28;19962;-55
2021/01/11 07:36:59;;;;;;;;;;;25.70;34.90;;;;;;5088870;28;19920;-57
2021/01/11 07:39:25;;;;;;;;;;;25.70;35.00;;;;;;5084201;28;20340;-57
2021/01/11 07:41:53;;;;;;;;;;;25.70;35.00;;;;;;5073027;28;19912;-55
2021/01/11 07:44:18;;;;;;;;;;;25.70;35.00;;;;;;5073159;28;19954;-55
2021/01/11 07:46:50;;;;;;;;;;;25.70;35.00;;;;;;5081841;28;19917;-56
2021/01/11 07:49:16;;;;;;;;;;;25.70;35.00;;;;;;5081464;28;19916;-62
2021/01/11 07:51:42;;;;;;;;;;;25.70;35.00;;;;;;5078134;28;19916;-61
2021/01/11 07:54:09;;;;;;;;;;;25.80;35.00;;;;;;5085232;28;20331;-61
2021/01/11 07:56:34;;;;;;;;;;;26.10;34.60;;;;;;5080497;28;19920;-60
2021/01/11 07:59:03;;;;;;;;;;;26.30;34.30;;;;;;5073964;28;20382;-60
2021/01/11 08:01:29;;;;;;;;;;;26.40;34.00;;;;;;5070674;28;19909;-61
2021/01/11 08:03:55;;;;;;;;;;;26.60;34.10;;;;;;5076988;28;20045;-64
2021/01/11 08:06:20;;;;;;;;;;;26.60;34.00;;;;;;5087745;28;19919;-55
2021/01/11 08:08:45;;;;;;;;;;;26.70;34.30;;;;;;5077547;28;19927;-53
2021/01/11 08:11:11;;;;;;;;;;;26.90;34.00;;;;;;5099440;28;19916;-50
2021/01/11 08:13:36;;;;;;;;;;;27.10;33.70;;;;;;5096811;28;20374;-55
2021/01/11 08:16:14;;;;;;;;;;;27.30;33.40;;;;;;5078045;28;19920;-52
2021/01/11 08:18:40;;;;;;;;;;;27.50;33.30;;;;;;5077388;28;19924;-57
2021/01/11 08:21:09;;;;;;;;;;;27.60;33.20;;;;;;5084962;28;19912;-59
2021/01/11 08:23:35;;;;;;;;;;;27.70;33.20;;;;;;5090569;28;20351;-59
2021/01/11 08:26:02;;;;;;;;;;;27.80;33.00;;;;;;5076620;28;19908;-60
2021/01/11 08:28:28;;;;;;;;;;;27.80;32.90;;;;;;5088452;28;19916;-60
2021/01/11 08:30:54;;;;;;;;;;;27.90;32.80;;;;;;5081736;28;19931;-59
2021/01/11 08:33:19;;;;;;;;;;;28.00;32.60;;;;;;5085858;28;19920;-51
2021/01/11 08:35:45;;;;;;;;;;;27.80;32.40;;;;;;5069847;28;19989;-51
2021/01/11 08:38:12;;;;;;;;;;;27.90;32.10;;;;;;5076226;28;19908;-56
2021/01/11 08:40:38;;;;;;;;;;;28.00;32.30;;;;;;5087943;28;19955;-55
2021/01/11 08:43:13;;;;;;;;;;;28.00;31.60;;;;;;5076250;28;19955;-56
2021/01/11 08:45:39;;;;;;;;;;;28.10;32.20;;;;;;5081882;28;19934;-54
2021/01/11 08:48:06;;;;;;;;;;;28.20;31.90;;;;;;5094703;28;20405;-55
2021/01/11 08:50:32;;;;;;;;;;;28.20;31.60;;;;;;5091270;28;19916;-53
2021/01/11 08:52:58;;;;;;;;;;;28.20;31.60;;;;;;5077951;28;19931;-61
2021/01/11 08:55:23;;;;;;;;;;;28.20;31.40;;;;;;5078022;28;19920;-59
2021/01/11 08:57:58;;;;;;;;;;;28.30;31.60;;;;;;5096004;28;19908;-57
2021/01/11 09:00:23;;;;;;;;;;;28.30;31.70;;;;;;5079132;28;19916;-58
2021/01/11 09:02:49;;;;;;;;;;;28.30;31.50;;;;;;5075875;28;19908;-56
2021/01/11 09:05:24;;;;;;;;;;;28.30;31.30;;;;;;5078155;28;20363;-58
2021/01/11 09:07:52;;;;;;;;;;;28.30;31.20;;;;;;5096118;28;19908;-62
2021/01/11 09:10:18;;;;;;;;;;;27.70;25.00;;;;;;5092497;28;19920;-55
2021/01/11 09:12:43;;;;;;;;;;;26.80;26.00;;;;;;5082546;28;19919;-54
2021/01/11 09:15:09;;;;;;;;;;;26.60;24.70;;;;;;5093983;28;20399;-59
2021/01/11 09:17:35;;;;;;;;;;;26.80;25.80;;;;;;5076761;28;19938;-63
2021/01/11 09:20:01;;;;;;;;;;;27.20;26.70;;;;;;5075030;28;19912;-62
2021/01/11 09:22:36;;;;;;;;;;;27.50;27.30;;;;;;5075486;28;20300;-61
2021/01/11 09:25:03;;;;;;;;;;;27.70;26.80;;;;;;5091103;28;19990;-54
2021/01/11 09:27:28;;;;;;;;;;;27.90;27.30;;;;;;5093126;28;20027;-57
2021/01/11 09:29:54;;;;;;;;;;;28.00;27.00;;;;;;5075256;28;20027;-56
2021/01/11 09:32:19;;;;;;;;;;;28.10;27.30;;;;;;5083049;28;20384;-51
2021/01/11 09:34:45;;;;;;;;;;;28.20;27.30;;;;;;5054915;28;19917;-59
2021/01/11 09:37:11;;;;;;;;;;;28.30;27.50;;;;;;5055035;28;19913;-52
2021/01/11 09:39:37;;;;;;;;;;;28.30;27.60;;;;;;5055244;28;20025;-52
2021/01/11 09:42:02;;;;;;;;;;;28.30;27.80;;;;;;5072805;28;20366;-58
2021/01/11 09:44:29;;;;;;;;;;;28.40;27.80;;;;;;5075269;28;19940;-60
2021/01/11 09:46:55;;;;;;;;;;;28.40;27.80;;;;;;5084866;28;19956;-57
2021/01/11 09:49:21;;;;;;;;;;;28.50;27.70;;;;;;5083818;28;19982;-58
2021/01/11 09:51:46;;;;;;;;;;;28.50;27.50;;;;;;5078570;28;19917;-54
2021/01/11 09:54:12;;;;;;;;;;;28.60;27.80;;;;;;5079773;28;19912;-54
2021/01/11 09:56:38;;;;;;;;;;;28.60;28.00;;;;;;5094080;28;19917;-52
2021/01/11 09:59:04;;;;;;;;;;;28.60;28.40;;;;;;5092582;28;19960;-56
2021/01/11 10:01:38;;;;;;;;;;;28.60;27.90;;;;;;5094398;28;19923;-55
2021/01/11 10:04:04;;;;;;;;;;;28.60;28.80;;;;;;5094715;28;19912;-57
2021/01/11 10:06:36;;;;;;;;;;;28.60;28.80;;;;;;5090962;28;19969;-61
2021/01/11 10:09:02;;;;;;;;;;;28.60;28.80;;;;;;5086462;28;19952;-60
2021/01/11 10:11:28;;;;;;;;;;;28.70;28.60;;;;;;5086431;28;20366;-57
2021/01/11 10:13:53;;;;;;;;;;;28.60;28.60;;;;;;5081938;28;19924;-59
2021/01/11 10:16:19;;;;;;;;;;;28.70;29.00;;;;;;5083304;28;19928;-53
2021/01/11 10:18:44;;;;;;;;;;;28.70;28.80;;;;;;5092141;28;19919;-56
2021/01/11 10:21:12;;;;;;;;;;;28.80;28.90;;;;;;5094072;28;19919;-57
2021/01/11 10:23:37;;;;;;;;;;;28.80;29.00;;;;;;5091685;28;19960;-55
2021/01/11 10:26:03;;;;;;;;;;;28.80;28.90;;;;;;5074214;28;19952;-57
2021/01/11 10:28:28;;;;;;;;;;;28.80;29.10;;;;;;5081876;28;20344;-57
2021/01/11 10:30:54;;;;;;;;;;;28.80;29.10;;;;;;5088204;28;19978;-58
2021/01/11 10:33:19;;;;;;;;;;;28.90;29.20;;;;;;5094233;28;20426;-56
2021/01/11 10:35:45;;;;;;;;;;;28.90;29.10;;;;;;5090705;28;20328;-57
2021/01/11 10:38:10;;;;;;;;;;;28.90;29.20;;;;;;5076025;28;19912;-57
2021/01/11 10:40:36;;;;;;;;;;;28.90;29.20;;;;;;5087773;28;19938;-55
2021/01/11 10:43:01;;;;;;;;;;;29.00;29.20;;;;;;5073587;28;19909;-56
2021/01/11 10:45:27;;;;;;;;;;;29.00;29.30;;;;;;5072719;28;20285;-54
2021/01/11 10:47:53;;;;;;;;;;;29.00;29.20;;;;;;5073714;28;20359;-55
2021/01/11 10:50:18;;;;;;;;;;;28.90;29.40;;;;;;5070360;28;20294;-54
2021/01/11 10:52:43;;;;;;;;;;;28.70;29.50;;;;;;5092556;28;19912;-61
2021/01/11 10:55:10;;;;;;;;;;;28.60;29.80;;;;;;5082419;28;20298;-56
2021/01/11 10:57:35;;;;;;;;;;;28.50;30.00;;;;;;5093589;28;20332;-59
2021/01/11 11:00:00;;;;;;;;;;;28.50;30.00;;;;;;5090882;28;19912;-58
2021/01/11 11:02:26;;;;;;;;;;;28.40;30.20;;;;;;5093222;28;19908;-57
2021/01/11 11:04:51;;;;;;;;;;;28.40;30.20;;;;;;5093869;28;19912;-59
2021/01/11 11:07:17;;;;;;;;;;;28.30;30.20;;;;;;5093392;28;19951;-54
2021/01/11 11:09:42;;;;;;;;;;;28.30;30.50;;;;;;5091560;28;19919;-57
2021/01/11 11:12:08;;;;;;;;;;;28.30;30.60;;;;;;5076634;28;20051;-55
2021/01/11 11:14:33;;;;;;;;;;;28.30;30.50;;;;;;5093525;28;20576;-58
2021/01/11 11:16:59;;;;;;;;;;;28.30;30.50;;;;;;5087550;28;20007;-59
2021/01/11 11:19:24;;;;;;;;;;;28.30;30.60;;;;;;5076379;28;19912;-58
2021/01/11 11:21:50;;;;;;;;;;;28.30;30.60;;;;;;5093244;28;20062;-57
2021/01/11 11:24:15;;;;;;;;;;;28.30;30.70;;;;;;5084097;28;19923;-58
2021/01/11 11:26:41;;;;;;;;;;;28.30;31.00;;;;;;5073082;28;19989;-54
2021/01/11 11:29:06;;;;;;;;;;;28.30;30.80;;;;;;5087584;28;19923;-57
2021/01/11 11:31:33;;;;;;;;;;;28.30;30.90;;;;;;5077940;28;20337;-57
2021/01/11 11:33:59;;;;;;;;;;;28.30;31.00;;;;;;5072797;28;19913;-56
2021/01/11 11:36:24;;;;;;;;;;;28.20;31.50;;;;;;5084488;28;19921;-57
2021/01/11 11:38:50;;;;;;;;;;;28.20;31.40;;;;;;5085371;28;19920;-58
2021/01/11 11:41:19;;;;;;;;;;;28.20;31.40;;;;;;5083193;28;19967;-55
2021/01/11 11:43:44;;;;;;;;;;;28.10;31.70;;;;;;5092355;28;19943;-57
2021/01/11 11:46:09;;;;;;;;;;;28.10;31.70;;;;;;5082756;28;20362;-56
2021/01/11 11:48:35;;;;;;;;;;;28.10;31.20;;;;;;5072617;28;19913;-55
2021/01/11 11:51:00;;;;;;;;;;;28.10;31.40;;;;;;5080924;28;19959;-56
2021/01/11 11:53:26;;;;;;;;;;;28.20;31.30;;;;;;5092958;28;20423;-55
2021/01/11 11:55:51;;;;;;;;;;;28.20;31.20;;;;;;5092016;28;19966;-61
2021/01/11 11:58:17;;;;;;;;;;;28.00;31.40;;;;;;5088828;28;19917;-59
2021/01/11 12:00:42;;;;;;;;;;;28.10;31.50;;;;;;5078810;28;20255;-56
2021/01/11 12:03:08;;;;;;;;;;;28.20;31.60;;;;;;5090816;28;19913;-56
2021/01/11 12:05:33;;;;;;;;;;;28.10;31.80;;;;;;5082600;28;19912;-58
2021/01/11 12:07:59;;;;;;;;;;;28.10;31.90;;;;;;5072679;28;19912;-59
2021/01/11 12:10:24;;;;;;;;;;;28.00;32.00;;;;;;5076118;28;19966;-60
2021/01/11 12:12:49;;;;;;;;;;;28.00;32.40;;;;;;5081387;28;19927;-57
2021/01/11 12:15:15;;;;;;;;;;;27.80;32.70;;;;;;5089854;28;20278;-58
2021/01/11 12:17:42;;;;;;;;;;;27.80;33.00;;;;;;5089752;28;19919;-61
2021/01/11 12:20:08;;;;;;;;;;;27.90;32.00;;;;;;5090818;28;19912;-62
2021/01/11 12:22:35;;;;;;;;;;;28.10;32.20;;;;;;5088707;28;20682;-61
2021/01/11 12:25:00;;;;;;;;;;;28.20;31.90;;;;;;5082848;28;19912;-55
2021/01/11 12:27:25;;;;;;;;;;;28.30;32.20;;;;;;5092700;28;19908;-58
2021/01/11 12:29:51;;;;;;;;;;;28.30;31.70;;;;;;5092423;28;20252;-50
2021/01/11 12:32:18;;;;;;;;;;;28.30;32.20;;;;;;5074235;28;19930;-54
2021/01/11 12:34:43;;;;;;;;;;;28.30;32.20;;;;;;5076081;28;20363;-56
2021/01/11 12:37:09;;;;;;;;;;;28.30;31.80;;;;;;5072130;28;19929;-52
2021/01/11 12:39:34;;;;;;;;;;;28.30;31.80;;;;;;5072373;28;19908;-55
2021/01/11 12:42:03;;;;;;;;;;;28.30;31.70;;;;;;5076433;28;20132;-61
2021/01/11 12:44:29;;;;;;;;;;;28.30;32.10;;;;;;5072242;28;19908;-56
2021/01/11 12:46:55;;;;;;;;;;;28.30;31.80;;;;;;5088595;28;20003;-59
2021/01/11 12:49:21;;;;;;;;;;;28.40;32.00;;;;;;5085451;28;19934;-58
2021/01/11 12:51:46;;;;;;;;;;;28.40;31.90;;;;;;5072043;28;20305;-58
2021/01/11 12:54:12;;;;;;;;;;;28.30;31.90;;;;;;5082918;28;19916;-59
2021/01/11 12:56:37;;;;;;;;;;;28.40;32.00;;;;;;5080574;28;19928;-57
2021/01/11 12:59:02;;;;;;;;;;;28.40;32.20;;;;;;5087457;28;19954;-58
2021/01/11 13:01:29;;;;;;;;;;;28.40;32.30;;;;;;5092455;28;19912;-58
2021/01/11 13:03:55;;;;;;;;;;;28.40;32.40;;;;;;5085875;28;19962;-61
2021/01/11 13:06:26;;;;;;;;;;;28.30;32.30;;;;;;5089253;28;19916;-62
2021/01/11 13:08:52;;;;;;;;;;;28.40;32.60;;;;;;5086793;28;19912;-58
2021/01/11 13:11:18;;;;;;;;;;;28.40;32.80;;;;;;5095710;28;19912;-55
2021/01/11 13:13:47;;;;;;;;;;;28.30;32.70;;;;;;5095786;28;19908;-59
2021/01/11 13:16:13;;;;;;;;;;;28.30;32.70;;;;;;5087450;28;19924;-53
2021/01/11 13:18:38;;;;;;;;;;;28.30;32.70;;;;;;5084904;28;19913;-57
2021/01/11 13:21:04;;;;;;;;;;;28.40;32.70;;;;;;5085140;28;19912;-56
2021/01/11 13:23:30;;;;;;;;;;;28.30;32.90;;;;;;5095876;28;19930;-55
2021/01/11 13:25:55;;;;;;;;;;;28.30;32.90;;;;;;5094111;28;19947;-59
2021/01/11 13:28:21;;;;;;;;;;;28.30;33.10;;;;;;5088949;28;19951;-57
2021/01/11 13:30:46;;;;;;;;;;;28.30;32.90;;;;;;5087241;28;19927;-58
2021/01/11 13:33:12;;;;;;;;;;;28.30;32.60;;;;;;5092633;28;19911;-53
2021/01/11 13:35:37;;;;;;;;;;;28.30;32.70;;;;;;5082541;28;19931;-54
2021/01/11 13:38:03;;;;;;;;;;;28.30;32.90;;;;;;5095669;28;19912;-59
2021/01/11 13:40:29;;;;;;;;;;;28.30;33.20;;;;;;5093598;28;19912;-56
2021/01/11 13:42:54;;;;;;;;;;;28.30;33.20;;;;;;5095331;28;19921;-55
2021/01/11 13:45:19;;;;;;;;;;;28.30;32.80;;;;;;5091772;28;19912;-63
2021/01/11 13:47:46;;;;;;;;;;;28.30;32.70;;;;;;5074833;28;19947;-63
2021/01/11 13:50:13;;;;;;;;;;;28.30;33.20;;;;;;5077032;28;19911;-59
2021/01/11 13:52:38;;;;;;;;;;;28.30;33.10;;;;;;5095318;28;19912;-60
2021/01/11 13:55:04;;;;;;;;;;;28.30;33.30;;;;;;5085142;28;19935;-54
2021/01/11 13:57:30;;;;;;;;;;;28.30;33.40;;;;;;5074772;28;19915;-57
2021/01/11 13:59:57;;;;;;;;;;;28.30;33.30;;;;;;5059577;28;19912;-56
2021/01/11 14:02:22;;;;;;;;;;;28.30;33.40;;;;;;5074846;28;19915;-58
2021/01/11 14:04:49;;;;;;;;;;;28.30;33.50;;;;;;5078504;28;19916;-60
2021/01/11 14:07:14;;;;;;;;;;;28.30;32.90;;;;;;5073899;28;19963;-59
2021/01/11 14:09:41;;;;;;;;;;;28.30;33.30;;;;;;5074564;28;19921;-53
2021/01/11 14:12:06;;;;;;;;;;;28.30;33.30;;;;;;5094833;28;19962;-53